Terminal Aerodrome Forecast
Issued by NWS Cleveland, OH

Home | Current Version | Previous Version | Text Only | Print | Product List | Glossary On
Versions: 1 2 3 4 5 6 7 8 9 10 11 12 13 14 15 16 17 18 19 20
000
FTUS41 KCLE 291100 RRA
TAFCAK
TAF
KCAK 291142Z 2912/3012 17015G25KT P6SM SCT045 OVC080
      TEMPO 2913/2917 4SM -FZRAPL BKN025 OVC035
     FM291700 19014KT 2SM -DZ BR SCT006 OVC012
      TEMPO 2921/2923 2SM -RASN OVC006
     FM292300 24012G20KT 3/4SM -SN BR OVC002
     FM300400 29012G22KT 3SM -SN BKN006 OVC012=

USA.gov is the U.S. government's official web portal to all federal, state and local government web resources and services.